NCAR-RAP Real-Time Weather Data

Output produced by METARs form (01 December 2020  17:41 UTC)
found at http://weather.rap.ucar.edu/surface/
 
KDFW 011653Z 19019G26KT 10SM FEW250 11/M05 A3013 RMK AO2 PK WND 18031/1614 SLP204 T01061050
KDFW 011553Z 19019G27KT 10SM FEW250 09/M06 A3014 RMK AO2 PK WND 18028/1531 SLP206 T00891061
KDFW 011453Z 19014KT 10SM FEW250 05/M05 A3014 RMK AO2 SLP206 T00501050 58002
KDFW 011353Z 18010KT 10SM CLR 02/M05 A3014 RMK AO2 SLP207 T00171050
KDFW 011253Z 18007KT 10SM CLR M01/M06 A3014 RMK AO2 SLP209 T10061056
KDFW 011153Z 18006KT 10SM CLR 00/M06 A3014 RMK AO2 SLP209 T00001056 10011 21017 56010
KDFW 011053Z 19008KT 10SM CLR M01/M05 A3015 RMK AO2 SLP211 T10111050
KDFW 010953Z 18008KT 10SM CLR M01/M04 A3017 RMK AO2 SLP216 T10061044
KDFW 010853Z 19008KT 10SM CLR M01/M05 A3017 RMK AO2 SLP219 T10061050 56017
KDFW 010753Z 18009KT 10SM CLR M01/M05 A3019 RMK AO2 SLP223 T10061050
KDFW 010653Z 19005KT 10SM CLR 01/M04 A3020 RMK AO2 SLP228 T00061044
KDFW 010553Z 21007KT 10SM CLR 01/M04 A3023 RMK AO2 SLP236 T00061044 10078 20000 401060000 58013
KDFW 010453Z 22006KT 10SM CLR 02/M04 A3024 RMK AO2 SLP241 T00171044
KDFW 010353Z 21005KT 10SM CLR 02/M05 A3025 RMK AO2 SLP247 T00221050
KDFW 010253Z 22005KT 10SM CLR 03/M05 A3026 RMK AO2 SLP250 T00281050 56009